createdAt,value
2018-02-24T00:00:21.751Z,30.97
2018-02-24T00:02:49.325Z,30.60
2018-02-24T00:05:16.925Z,29.27
2018-02-24T00:07:44.567Z,29.77
2018-02-24T00:10:12.147Z,34.13
2018-02-24T00:12:39.785Z,30.27
2018-02-24T00:15:07.416Z,29.07
2018-02-24T00:17:35.054Z,29.70
2018-02-24T00:20:02.678Z,29.27
2018-02-24T00:22:30.390Z,28.73
2018-02-24T00:24:57.960Z,29.50
2018-02-24T00:27:25.538Z,30.40
2018-02-24T00:29:53.174Z,28.63
2018-02-24T00:32:20.759Z,29.73
2018-02-24T00:34:48.349Z,26.63
2018-02-24T00:37:15.989Z,30.13
2018-02-24T00:39:43.574Z,28.60
2018-02-24T00:42:11.212Z,30.07
2018-02-24T00:44:38.919Z,29.60
2018-02-24T00:47:06.530Z,32.33
2018-02-24T00:49:34.117Z,26.40
2018-02-24T00:52:01.761Z,28.37
2018-02-24T00:54:29.366Z,29.07
2018-02-24T00:56:56.974Z,28.30
2018-02-24T00:59:24.641Z,29.17
2018-02-24T01:01:52.231Z,31.20
2018-02-24T01:04:19.870Z,28.80
2018-02-24T01:06:47.511Z,29.03
2018-02-24T01:09:15.086Z,28.80
2018-02-24T01:11:42.710Z,30.60
2018-02-24T01:14:10.414Z,31.93
2018-02-24T01:16:38.050Z,33.17
2018-02-24T01:19:05.680Z,34.73
2018-02-24T01:21:33.384Z,30.10
2018-02-24T01:24:01.015Z,31.13
2018-02-24T01:26:28.589Z,34.43
2018-02-24T01:28:56.272Z,30.70
2018-02-24T01:31:23.905Z,34.40
2018-02-24T01:33:51.474Z,31.73
2018-02-24T01:36:19.103Z,31.40
2018-02-24T01:38:46.733Z,31.10
2018-02-24T01:41:14.390Z,33.33
2018-02-24T01:43:42.269Z,34.03
2018-02-24T01:46:09.846Z,34.43
2018-02-24T01:48:37.432Z,31.57
2018-02-24T01:51:05.041Z,34.20
2018-02-24T01:53:32.612Z,32.30
2018-02-24T01:56:00.190Z,33.53
2018-02-24T01:58:27.828Z,33.17
2018-02-24T02:00:55.419Z,35.50
2018-02-24T02:03:22.994Z,33.60
2018-02-24T02:05:50.627Z,32.83
2018-02-24T02:08:18.211Z,31.57
2018-02-24T02:10:45.787Z,30.47
2018-02-24T02:13:13.431Z,32.07
2018-02-24T02:15:41.073Z,34.50
2018-02-24T02:18:08.650Z,31.80
2018-02-24T02:20:36.349Z,28.40
2018-02-24T02:23:03.923Z,31.30
2018-02-24T02:25:31.499Z,29.00
2018-02-24T02:27:59.136Z,28.47
2018-02-24T02:30:26.705Z,30.03
2018-02-24T02:32:54.296Z,28.70
2018-02-24T02:35:21.947Z,28.67
2018-02-24T02:37:49.600Z,28.10
2018-02-24T02:40:17.234Z,25.83
2018-02-24T02:42:44.931Z,25.87
2018-02-24T02:45:12.508Z,25.10
2018-02-24T02:47:40.084Z,23.50
2018-02-24T02:50:07.819Z,24.33
2018-02-24T02:52:35.391Z,24.67
2018-02-24T02:55:02.972Z,27.97
2018-02-24T02:57:30.651Z,28.87
2018-02-24T02:59:58.210Z,25.97
2018-02-24T03:02:25.790Z,27.90
2018-02-24T03:04:53.427Z,25.70
2018-02-24T03:07:20.995Z,26.00
2018-02-24T03:09:48.615Z,27.20
2018-02-24T03:12:16.250Z,29.13
2018-02-24T03:14:43.889Z,30.30
2018-02-24T03:17:11.475Z,29.43
2018-02-24T03:19:39.157Z,28.70
2018-02-24T03:22:06.775Z,29.37
2018-02-24T03:24:34.405Z,31.43
2018-02-24T03:27:02.104Z,33.13
2018-02-24T03:29:29.756Z,31.40
2018-02-24T03:31:57.386Z,32.53
2018-02-24T03:34:25.021Z,32.27
2018-02-24T03:36:52.655Z,33.77
2018-02-24T03:39:20.283Z,33.13
2018-02-24T03:41:47.954Z,31.23
2018-02-24T03:44:15.553Z,34.60
2018-02-24T03:46:43.128Z,30.97
2018-02-24T03:49:10.758Z,44.40
2018-02-24T03:51:38.344Z,41.40
2018-02-24T03:54:05.972Z,38.10
2018-02-24T03:56:33.607Z,34.20
2018-02-24T03:59:01.179Z,42.87
2018-02-24T04:01:28.747Z,41.47
2018-02-24T04:03:56.379Z,38.07
2018-02-24T04:06:23.994Z,37.63
2018-02-24T04:08:51.583Z,36.97
2018-02-24T04:11:19.263Z,41.30
2018-02-24T04:13:46.816Z,37.50
2018-02-24T04:16:14.393Z,35.27
2018-02-24T04:18:42.029Z,35.83
2018-02-24T04:21:09.604Z,36.37
2018-02-24T04:23:37.173Z,39.07
2018-02-24T04:26:04.869Z,39.23
2018-02-24T04:28:32.500Z,36.03
2018-02-24T04:31:00.064Z,46.87
2018-02-24T04:33:27.771Z,46.40
2018-02-24T04:35:55.414Z,40.63
2018-02-24T04:38:22.986Z,39.73
2018-02-24T04:40:50.676Z,39.90
2018-02-24T04:43:18.316Z,50.07
2018-02-24T04:45:45.891Z,50.37
2018-02-24T04:48:13.540Z,46.10
2018-02-24T04:50:41.180Z,45.90
2018-02-24T04:53:08.756Z,43.27
2018-02-24T04:55:36.417Z,41.30
2018-02-24T04:58:03.991Z,48.53
2018-02-24T05:00:31.607Z,47.70
2018-02-24T05:02:59.287Z,43.00
2018-02-24T05:08:08.860Z,44.30
2018-02-24T05:10:36.442Z,40.40
2018-02-24T05:13:04.024Z,41.10
2018-02-24T05:15:31.699Z,41.33
2018-02-24T05:17:59.331Z,40.67
2018-02-24T05:20:26.913Z,38.37
2018-02-24T05:22:54.543Z,39.70
2018-02-24T05:25:22.262Z,42.00
2018-02-24T05:27:49.915Z,36.23
2018-02-24T05:30:17.534Z,36.60
2018-02-24T05:32:45.164Z,35.33
2018-02-24T05:35:12.808Z,33.03
2018-02-24T05:37:40.441Z,31.90
2018-02-24T05:40:08.067Z,33.40
2018-02-24T05:42:35.643Z,32.77
2018-02-24T05:45:03.335Z,38.60
2018-02-24T05:47:30.972Z,37.77
2018-02-24T05:49:58.534Z,37.40
2018-02-24T05:52:26.165Z,39.13
2018-02-24T05:54:53.845Z,35.50
2018-02-24T05:57:21.435Z,36.20
2018-02-24T05:59:49.135Z,33.17
2018-02-24T06:02:16.712Z,35.03
2018-02-24T06:04:44.298Z,30.83
2018-02-24T06:07:11.929Z,31.30
2018-02-24T06:09:39.498Z,29.10
2018-02-24T06:12:07.047Z,31.83
2018-02-24T06:14:34.734Z,32.77
2018-02-24T06:17:02.310Z,36.27
2018-02-24T06:19:29.873Z,34.30
2018-02-24T06:21:57.569Z,36.07
2018-02-24T06:24:25.197Z,37.83
2018-02-24T06:26:52.813Z,27.93
2018-02-24T06:29:20.450Z,30.27
2018-02-24T06:31:48.149Z,32.07
2018-02-24T06:34:16.533Z,31.73
2018-02-24T06:36:44.322Z,30.17
2018-02-24T06:39:12.128Z,29.47
2018-02-24T06:41:39.842Z,33.13
2018-02-24T06:44:07.548Z,29.43
2018-02-24T06:46:35.600Z,28.37
2018-02-24T06:49:03.291Z,34.10
2018-02-24T06:51:31.129Z,31.83
2018-02-24T06:53:58.789Z,26.27
2018-02-24T06:56:26.528Z,33.47
2018-02-24T06:58:54.249Z,33.97
2018-02-24T07:01:21.890Z,34.40
2018-02-24T07:03:49.453Z,35.03
2018-02-24T07:06:17.084Z,37.87
2018-02-24T07:08:44.729Z,35.07
2018-02-24T07:11:12.310Z,37.17
2018-02-24T07:13:39.950Z,34.97
2018-02-24T07:16:08.119Z,44.23
2018-02-24T07:18:35.686Z,33.27
2018-02-24T07:21:03.411Z,29.83
2018-02-24T07:23:30.984Z,47.60
2018-02-24T07:25:58.563Z,39.27
2018-02-24T07:28:26.285Z,35.00
2018-02-24T07:30:53.840Z,37.97
2018-02-24T07:33:21.467Z,36.27
2018-02-24T07:35:49.104Z,39.60
2018-02-24T07:38:16.682Z,40.73
2018-02-24T07:40:44.255Z,38.03
2018-02-24T07:43:11.844Z,29.97
2018-02-24T07:45:39.450Z,31.97
2018-02-24T07:48:07.018Z,29.00
2018-02-24T07:50:34.674Z,30.20
2018-02-24T07:53:02.248Z,28.53
2018-02-24T07:55:29.898Z,35.73
2018-02-24T07:57:57.474Z,34.30
2018-02-24T08:00:25.103Z,33.87
2018-02-24T08:02:52.791Z,33.00
2018-02-24T08:05:20.395Z,32.07
2018-02-24T08:07:47.957Z,32.30
2018-02-24T08:10:15.540Z,32.80
2018-02-24T08:12:43.114Z,41.00
2018-02-24T08:15:10.804Z,29.93
2018-02-24T08:17:38.369Z,30.80
2018-02-24T08:20:05.943Z,31.77
2018-02-24T08:22:33.519Z,30.53
2018-02-24T08:25:01.151Z,27.77
2018-02-24T08:27:28.767Z,33.93
2018-02-24T08:29:56.395Z,37.03
2018-02-24T08:32:23.963Z,28.17
2018-02-24T08:34:51.517Z,33.20
2018-02-24T08:37:19.172Z,33.03
2018-02-24T08:39:47.208Z,26.97
2018-02-24T08:42:14.795Z,35.07
2018-02-24T08:44:42.387Z,33.90
2018-02-24T08:47:09.982Z,32.17
2018-02-24T08:49:37.565Z,34.50
2018-02-24T08:52:05.190Z,39.73
2018-02-24T08:54:32.764Z,34.43
2018-02-24T08:57:00.391Z,31.10
2018-02-24T08:59:27.974Z,36.63
2018-02-24T09:01:55.541Z,29.43
2018-02-24T09:04:23.174Z,33.30
2018-02-24T09:06:50.743Z,29.87
2018-02-24T09:09:18.384Z,33.80
2018-02-24T09:11:45.970Z,33.80
2018-02-24T09:14:13.540Z,27.50
2018-02-24T09:16:41.277Z,30.17
2018-02-24T09:19:08.884Z,31.60
2018-02-24T09:21:36.515Z,33.63
2018-02-24T09:24:04.105Z,29.77
2018-02-24T09:26:31.693Z,29.50
2018-02-24T09:28:59.318Z,29.00
2018-02-24T09:31:26.948Z,30.40
2018-02-24T09:33:54.534Z,32.57
2018-02-24T09:36:22.114Z,34.33
2018-02-24T09:38:49.713Z,38.80
2018-02-24T09:41:17.345Z,36.27
2018-02-24T09:43:44.979Z,36.80
2018-02-24T09:46:12.558Z,36.73
2018-02-24T09:48:40.185Z,33.97
2018-02-24T09:51:07.819Z,37.10
2018-02-24T09:53:35.500Z,32.10
2018-02-24T09:56:03.101Z,33.57
2018-02-24T09:58:30.710Z,35.00
2018-02-24T10:00:58.295Z,35.13
2018-02-24T10:03:25.860Z,37.77
2018-02-24T10:05:53.617Z,33.67
2018-02-24T10:08:21.221Z,33.10
2018-02-24T10:10:48.787Z,37.50
2018-02-24T10:13:16.419Z,33.27
2018-02-24T10:15:43.986Z,40.10
2018-02-24T10:18:11.608Z,36.10
2018-02-24T10:20:39.159Z,38.47
2018-02-24T10:23:06.722Z,40.40
2018-02-24T10:25:34.294Z,34.57
2018-02-24T10:28:01.854Z,38.03
2018-02-24T10:30:30.454Z,38.90
2018-02-24T10:32:58.034Z,43.10
2018-02-24T10:35:25.674Z,37.17
2018-02-24T10:37:53.255Z,37.27
2018-02-24T10:40:20.827Z,37.17
2018-02-24T10:42:48.458Z,37.07
2018-02-24T10:45:16.029Z,37.60
2018-02-24T10:47:43.604Z,37.80
2018-02-24T10:50:11.257Z,39.57
2018-02-24T10:52:38.836Z,38.40
2018-02-24T10:55:06.510Z,39.00
2018-02-24T10:57:34.774Z,34.10
2018-02-24T11:00:02.404Z,33.20
2018-02-24T11:02:30.065Z,36.17
2018-02-24T11:04:57.634Z,37.17
2018-02-24T11:07:25.268Z,31.10
2018-02-24T11:09:52.838Z,36.63
2018-02-24T11:12:20.429Z,34.60
2018-02-24T11:14:48.019Z,36.17
2018-02-24T11:17:15.605Z,34.47
2018-02-24T11:19:43.284Z,40.80
2018-02-24T11:22:10.859Z,33.03
2018-02-24T11:24:38.503Z,35.70
2018-02-24T11:27:06.144Z,32.70
2018-02-24T11:29:33.739Z,28.23
2018-02-24T11:32:01.377Z,24.90
2018-02-24T11:34:29.127Z,26.77
2018-02-24T11:36:56.794Z,28.10
2018-02-24T11:39:29.967Z,26.53
2018-02-24T11:41:57.542Z,29.40
2018-02-24T11:44:25.183Z,23.90
2018-02-24T11:46:53.886Z,25.97
2018-02-24T11:49:21.470Z,32.50
2018-02-24T11:51:49.226Z,31.30
2018-02-24T11:54:16.790Z,33.00
2018-02-24T11:56:44.446Z,41.43
2018-02-24T11:59:12.243Z,31.63
2018-02-24T12:01:39.806Z,31.60
2018-02-24T12:04:07.390Z,28.77
2018-02-24T12:06:35.059Z,32.97
2018-02-24T12:09:02.686Z,32.97
2018-02-24T12:11:30.312Z,30.57
2018-02-24T12:13:57.942Z,35.20
2018-02-24T12:16:25.517Z,27.37
2018-02-24T12:18:53.140Z,32.50
2018-02-24T12:21:20.762Z,32.13
2018-02-24T12:23:48.330Z,33.97
2018-02-24T12:26:15.962Z,31.97
2018-02-24T12:28:43.510Z,43.20
2018-02-24T12:31:11.095Z,38.00
2018-02-24T12:33:39.698Z,33.63
2018-02-24T12:36:07.324Z,33.23
2018-02-24T12:38:34.988Z,31.03
2018-02-24T12:41:02.582Z,30.73
2018-02-24T12:43:30.155Z,31.40
2018-02-24T12:45:57.863Z,30.70
2018-02-24T12:48:25.463Z,37.87
2018-02-24T12:50:53.033Z,32.13
2018-02-24T12:53:20.613Z,33.17
2018-02-24T12:55:48.196Z,32.17
2018-02-24T12:58:15.826Z,35.27
2018-02-24T13:00:43.433Z,31.20
2018-02-24T13:03:11.028Z,30.77
2018-02-24T13:05:39.749Z,28.70
2018-02-24T13:08:07.375Z,27.37
2018-02-24T13:10:34.992Z,33.10
2018-02-24T13:13:02.558Z,37.10
2018-02-24T13:15:30.188Z,31.87
2018-02-24T13:17:57.758Z,40.73
2018-02-24T13:20:25.384Z,34.67
2018-02-24T13:22:53.059Z,33.40
2018-02-24T13:25:21.362Z,35.53
2018-02-24T13:27:49.006Z,33.37
2018-02-24T13:30:16.583Z,33.23
2018-02-24T13:32:44.187Z,35.37
2018-02-24T13:35:11.803Z,34.47
2018-02-24T13:37:39.476Z,35.17
2018-02-24T13:40:07.255Z,30.83
2018-02-24T13:42:34.853Z,27.97
2018-02-24T13:45:02.541Z,27.43
2018-02-24T13:47:30.223Z,29.20
2018-02-24T13:49:57.892Z,28.90
2018-02-24T13:52:25.558Z,32.83
2018-02-24T13:54:53.147Z,47.00
2018-02-24T13:57:20.859Z,29.50
2018-02-24T13:59:48.494Z,31.47
2018-02-24T14:02:16.076Z,35.57
2018-02-24T14:04:43.988Z,38.47
2018-02-24T14:07:11.659Z,37.80
2018-02-24T14:09:39.233Z,37.97
2018-02-24T14:12:07.797Z,37.90
2018-02-24T14:14:35.389Z,43.90
2018-02-24T14:17:03.195Z,40.20
2018-02-24T14:19:30.882Z,39.87
2018-02-24T14:21:58.458Z,42.37
2018-02-24T14:24:26.439Z,40.77
2018-02-24T14:26:54.011Z,42.77
2018-02-24T14:29:21.591Z,40.30
2018-02-24T14:31:49.214Z,45.47
2018-02-24T14:34:16.860Z,47.90
2018-02-24T14:36:44.640Z,49.50
2018-02-24T14:39:12.257Z,51.33
2018-02-24T14:41:39.826Z,47.90
2018-02-24T14:44:07.417Z,43.87
2018-02-24T14:46:35.431Z,43.37
2018-02-24T14:49:03.075Z,47.37
2018-02-24T14:51:30.704Z,46.00
2018-02-24T14:53:58.278Z,44.80
2018-02-24T14:56:26.048Z,43.80
2018-02-24T14:58:53.816Z,40.53
2018-02-24T15:01:21.485Z,44.20
2018-02-24T15:03:49.093Z,45.40
2018-02-24T15:06:16.811Z,51.17
2018-02-24T15:08:44.627Z,43.90
2018-02-24T15:11:12.280Z,44.27
2018-02-24T15:13:39.980Z,40.63
2018-02-24T15:16:07.620Z,45.57
2018-02-24T15:18:35.252Z,45.60
2018-02-24T15:21:02.940Z,41.70
2018-02-24T15:23:33.034Z,43.27
2018-02-24T15:26:00.659Z,38.50
2018-02-24T15:28:28.293Z,38.97
2018-02-24T15:30:55.871Z,39.47
2018-02-24T15:33:23.455Z,44.33
2018-02-24T15:35:51.070Z,47.70
2018-02-24T15:38:18.739Z,43.60
2018-02-24T15:40:46.377Z,40.30
2018-02-24T15:43:13.959Z,41.80
2018-02-24T15:45:41.551Z,47.30
2018-02-24T15:48:09.169Z,44.33
2018-02-24T15:50:36.836Z,46.93
2018-02-24T15:53:04.458Z,48.97
2018-02-24T15:55:32.050Z,48.40
2018-02-24T15:57:59.624Z,48.77
2018-02-24T16:00:27.199Z,46.00
2018-02-24T16:02:54.826Z,48.90
2018-02-24T16:05:22.403Z,46.47
2018-02-24T16:07:49.995Z,51.40
2018-02-24T16:10:17.583Z,47.77
2018-02-24T16:12:45.206Z,53.07
2018-02-24T16:15:12.938Z,55.10
2018-02-24T16:17:40.579Z,53.17
2018-02-24T16:20:08.173Z,65.23
2018-02-24T16:22:35.843Z,70.00
2018-02-24T16:25:03.498Z,60.93
2018-02-24T16:27:31.199Z,57.87
2018-02-24T16:29:58.835Z,66.67
2018-02-24T16:32:26.409Z,49.47
2018-02-24T16:34:54.003Z,47.30
2018-02-24T16:37:21.704Z,55.57
2018-02-24T16:39:49.407Z,59.47
2018-02-24T16:42:16.970Z,64.97
2018-02-24T16:44:44.696Z,91.60
2018-02-24T16:47:12.295Z,53.07
2018-02-24T16:49:39.866Z,52.50
2018-02-24T16:52:07.494Z,164.03
2018-02-24T16:54:35.078Z,89.07
2018-02-24T16:57:02.645Z,85.03
2018-02-24T16:59:30.229Z,86.13
2018-02-24T17:01:57.780Z,80.30
2018-02-24T17:04:25.392Z,97.00
2018-02-24T17:06:52.985Z,166.10
2018-02-24T17:09:20.541Z,44.60
2018-02-24T17:11:48.181Z,39.27
2018-02-24T17:14:15.753Z,38.37
2018-02-24T17:16:43.444Z,39.80
2018-02-24T17:19:11.020Z,43.97
2018-02-24T17:21:38.591Z,35.53
2018-02-24T17:24:06.183Z,35.20
2018-02-24T17:26:33.752Z,43.33
2018-02-24T17:29:01.379Z,41.47
2018-02-24T17:31:28.951Z,52.00
2018-02-24T17:33:56.579Z,46.13
2018-02-24T17:36:24.220Z,45.27
2018-02-24T17:38:51.832Z,37.90
2018-02-24T17:41:19.459Z,43.87
2018-02-24T17:43:47.031Z,42.33
2018-02-24T17:46:14.615Z,48.07
2018-02-24T17:48:42.252Z,51.37
2018-02-24T17:51:09.884Z,49.10
2018-02-24T17:53:37.573Z,48.97
2018-02-24T17:56:05.334Z,77.97
2018-02-24T17:58:32.946Z,46.30
2018-02-24T18:01:00.544Z,49.73
2018-02-24T18:03:28.158Z,48.13
2018-02-24T18:05:55.812Z,50.13
2018-02-24T18:08:23.396Z,38.37
2018-02-24T18:10:50.988Z,46.07
2018-02-24T18:13:18.626Z,39.90
2018-02-24T18:15:46.352Z,48.30
2018-02-24T18:18:13.994Z,42.90
2018-02-24T18:20:41.624Z,41.97
2018-02-24T18:23:09.278Z,43.83
2018-02-24T18:25:36.854Z,43.80
2018-02-24T18:28:04.421Z,46.57
2018-02-24T18:30:32.053Z,41.10
2018-02-24T18:32:59.622Z,41.80
2018-02-24T18:35:27.251Z,45.70
2018-02-24T18:37:54.883Z,48.07
2018-02-24T18:40:22.459Z,51.50
2018-02-24T18:42:50.034Z,46.20
2018-02-24T18:45:17.667Z,42.83
2018-02-24T18:47:45.406Z,39.40
2018-02-24T18:50:13.067Z,40.37
2018-02-24T18:52:41.440Z,48.37
2018-02-24T18:55:09.073Z,35.23
2018-02-24T18:57:36.776Z,35.43
2018-02-24T19:00:04.551Z,35.17
2018-02-24T19:02:32.146Z,39.10
2018-02-24T19:04:59.732Z,38.50
2018-02-24T19:07:27.306Z,39.00
2018-02-24T19:09:54.877Z,41.73
2018-02-24T19:12:22.538Z,37.87
2018-02-24T19:14:50.099Z,35.47
2018-02-24T19:17:17.767Z,35.90
2018-02-24T19:19:45.435Z,32.40
2018-02-24T19:22:13.063Z,26.67
2018-02-24T19:24:40.787Z,23.60
2018-02-24T19:27:08.411Z,27.87
2018-02-24T19:29:36.071Z,40.20
2018-02-24T19:32:03.656Z,32.40
2018-02-24T19:34:31.333Z,36.00
2018-02-24T19:36:58.976Z,53.33
2018-02-24T19:39:26.538Z,41.57
2018-02-24T19:41:54.106Z,44.20
2018-02-24T19:44:21.744Z,42.90
2018-02-24T19:46:49.310Z,39.03
2018-02-24T19:49:16.945Z,22.93
2018-02-24T19:51:44.578Z,28.87
2018-02-24T19:54:12.189Z,39.83
2018-02-24T19:56:39.763Z,25.53
2018-02-24T19:59:07.335Z,26.40
2018-02-24T20:01:34.978Z,29.27
2018-02-24T20:04:02.611Z,47.60
2018-02-24T20:06:30.292Z,30.17
2018-02-24T20:08:57.936Z,33.77
2018-02-24T20:11:25.498Z,34.37
2018-02-24T20:13:55.479Z,37.03
2018-02-24T20:16:23.108Z,43.57
2018-02-24T20:18:50.699Z,35.30
2018-02-24T20:21:18.275Z,37.40
2018-02-24T20:23:45.857Z,32.97
2018-02-24T20:26:16.178Z,36.47
2018-02-24T20:28:43.756Z,27.10
2018-02-24T20:31:11.330Z,29.07
2018-02-24T20:33:38.977Z,28.23
2018-02-24T20:36:06.527Z,27.00
2018-02-24T20:38:34.221Z,28.17
2018-02-24T20:41:01.787Z,25.80
2018-02-24T20:43:29.353Z,26.70
2018-02-24T20:45:56.979Z,26.20
2018-02-24T20:48:24.621Z,22.30
2018-02-24T20:50:52.242Z,24.03
2018-02-24T20:53:19.802Z,25.23
2018-02-24T20:55:47.424Z,27.00
2018-02-24T20:58:15.036Z,30.20
2018-02-24T21:00:42.598Z,35.90
2018-02-24T21:03:10.296Z,29.00
2018-02-24T21:05:37.916Z,25.60
2018-02-24T21:08:05.543Z,24.63
2018-02-24T21:10:33.122Z,23.20
2018-02-24T21:13:00.767Z,23.60
2018-02-24T21:15:28.532Z,21.30
2018-02-24T21:17:56.114Z,21.20
2018-02-24T21:20:23.679Z,20.70
2018-02-24T21:22:51.235Z,20.50
2018-02-24T21:25:18.799Z,23.23
2018-02-24T21:27:46.418Z,23.10
2018-02-24T21:30:14.039Z,24.30
2018-02-24T21:32:41.707Z,22.83
2018-02-24T21:35:09.322Z,21.50
2018-02-24T21:37:36.881Z,22.40
2018-02-24T21:40:04.502Z,23.63
2018-02-24T21:42:32.104Z,25.13
2018-02-24T21:44:59.656Z,24.10
2018-02-24T21:47:27.288Z,23.30
2018-02-24T21:49:55.779Z,27.37
2018-02-24T21:52:23.414Z,21.93
2018-02-24T21:54:50.976Z,27.03
2018-02-24T21:57:18.643Z,22.90
2018-02-24T22:02:22.268Z,25.00
2018-02-24T22:04:49.965Z,26.30
2018-02-24T22:07:17.661Z,24.70
2018-02-24T22:09:45.312Z,23.57
2018-02-24T22:12:12.888Z,24.43
2018-02-24T22:14:40.458Z,22.47
2018-02-24T22:17:08.100Z,23.17
2018-02-24T22:19:35.670Z,22.50
2018-02-24T22:22:03.238Z,22.10
2018-02-24T22:24:30.875Z,23.00
2018-02-24T22:26:58.455Z,22.77
2018-02-24T22:29:26.087Z,26.63
2018-02-24T22:31:53.711Z,23.70
2018-02-24T22:34:21.347Z,25.97
2018-02-24T22:36:48.926Z,25.40
2018-02-24T22:39:16.508Z,24.53
2018-02-24T22:41:44.204Z,24.40
2018-02-24T22:44:11.779Z,23.90
2018-02-24T22:46:39.355Z,25.43
2018-02-24T22:49:06.931Z,23.43
2018-02-24T22:51:34.556Z,24.17
2018-02-24T22:54:02.212Z,23.10
2018-02-24T22:56:29.835Z,25.37
2018-02-24T22:58:57.473Z,23.80
2018-02-24T23:01:25.089Z,24.90
2018-02-24T23:03:52.652Z,25.17
2018-02-24T23:06:20.344Z,25.87
